createdAt,value
2017-08-01T00:00:29.199Z,993.42
2017-08-01T00:01:29.228Z,993.54
2017-08-01T00:02:29.261Z,993.64
2017-08-01T00:03:29.289Z,993.48
2017-08-01T00:04:29.313Z,993.3
2017-08-01T00:05:29.346Z,993.34
2017-08-01T00:06:29.375Z,993.36
2017-08-01T00:07:29.404Z,993.34
2017-08-01T00:08:29.440Z,993.36
2017-08-01T00:09:29.466Z,993.08
2017-08-01T00:10:29.491Z,992.75
2017-08-01T00:11:29.521Z,992.59
2017-08-01T00:12:29.553Z,992.55
2017-08-01T00:13:29.586Z,992.25
2017-08-01T00:14:29.614Z,992.08
2017-08-01T00:15:29.644Z,992.07
2017-08-01T00:16:29.672Z,992.12
2017-08-01T00:17:29.706Z,991.99
2017-08-01T00:18:29.729Z,992
2017-08-01T00:19:29.761Z,992.29
2017-08-01T00:20:29.793Z,992.42
2017-08-01T00:21:29.821Z,992.45
2017-08-01T00:22:29.855Z,992.42
2017-08-01T00:23:29.874Z,992.38
2017-08-01T00:24:29.903Z,992.37
2017-08-01T00:25:29.940Z,992.26
2017-08-01T00:26:29.970Z,992.08
2017-08-01T00:27:29.999Z,991.94
2017-08-01T00:28:30.024Z,991.79
2017-08-01T00:29:30.056Z,991.84
2017-08-01T00:30:30.084Z,991.85
2017-08-01T00:31:30.113Z,991.77
2017-08-01T00:32:30.145Z,991.57
2017-08-01T00:33:30.170Z,991.51
2017-08-01T00:34:30.203Z,991.51
2017-08-01T00:35:30.231Z,991.47
2017-08-01T00:36:30.260Z,991.52
2017-08-01T00:37:30.541Z,991.56
2017-08-01T00:38:30.322Z,991.58
2017-08-01T00:39:30.351Z,991.5
2017-08-01T00:40:30.374Z,991.32
2017-08-01T00:41:30.407Z,991.07
2017-08-01T00:42:30.684Z,990.86
2017-08-01T00:43:30.466Z,990.77
2017-08-01T00:44:30.496Z,990.78
2017-08-01T00:45:30.528Z,990.87
2017-08-01T00:46:30.557Z,991
2017-08-01T00:47:30.884Z,991.08
2017-08-01T00:48:30.614Z,991.16
2017-08-01T00:49:30.643Z,991.21
2017-08-01T00:50:30.671Z,991.26
2017-08-01T00:51:30.700Z,991.27
2017-08-01T00:52:30.986Z,991.41
2017-08-01T00:53:30.762Z,991.42
2017-08-01T00:54:30.791Z,991.48
2017-08-01T00:55:30.820Z,991.47
2017-08-01T00:56:30.848Z,991.44
2017-08-01T00:57:31.128Z,991.45
2017-08-01T00:58:30.906Z,991.45
2017-08-01T00:59:30.939Z,991.41
2017-08-01T01:00:30.967Z,991.45
2017-08-01T01:01:30.993Z,991.44
2017-08-01T01:02:31.026Z,991.42
2017-08-01T01:03:31.054Z,991.39
2017-08-01T01:04:31.083Z,991.36
2017-08-01T01:05:31.111Z,991.36
2017-08-01T01:06:31.141Z,991.27
2017-08-01T01:07:31.174Z,991.25
2017-08-01T01:08:31.202Z,991.25
2017-08-01T01:09:31.230Z,991.25
2017-08-01T01:10:31.256Z,991.23
2017-08-01T01:11:31.289Z,991.18
2017-08-01T01:12:31.318Z,991.17
2017-08-01T01:13:31.348Z,991.2
2017-08-01T01:14:31.380Z,991.2
2017-08-01T01:15:31.408Z,991.24
2017-08-01T01:16:31.437Z,991.24
2017-08-01T01:17:31.467Z,991.29
2017-08-01T01:18:31.495Z,991.25
2017-08-01T01:19:31.525Z,991.22
2017-08-01T01:20:31.561Z,991.28
2017-08-01T01:21:31.585Z,991.28
2017-08-01T01:22:31.614Z,991.27
2017-08-01T01:23:31.645Z,991.2
2017-08-01T01:24:31.672Z,991.16
2017-08-01T01:25:31.721Z,991.15
2017-08-01T01:26:31.729Z,991.2
2017-08-01T01:27:31.757Z,991.11
2017-08-01T01:28:31.791Z,991.06
2017-08-01T01:29:31.824Z,991
2017-08-01T01:30:31.853Z,990.97
2017-08-01T01:31:31.876Z,990.95
2017-08-01T01:32:31.905Z,990.97
2017-08-01T01:33:31.931Z,991.03
2017-08-01T01:34:31.964Z,991.1
2017-08-01T01:35:31.992Z,991.11
2017-08-01T01:36:32.026Z,991.16
2017-08-01T01:37:32.054Z,991.2
2017-08-01T01:38:32.084Z,991.2
2017-08-01T01:39:32.113Z,991.15
2017-08-01T01:40:32.142Z,991.2
2017-08-01T01:41:32.170Z,991.22
2017-08-01T01:42:32.198Z,991.26
2017-08-01T01:43:32.229Z,991.3
2017-08-01T01:44:32.256Z,991.3
2017-08-01T01:45:32.291Z,991.34
2017-08-01T01:46:32.319Z,991.38
2017-08-01T01:47:32.344Z,991.42
2017-08-01T01:48:32.377Z,991.5
2017-08-01T01:49:32.408Z,991.45
2017-08-01T01:50:32.435Z,991.48
2017-08-01T01:51:32.457Z,991.52
2017-08-01T01:52:32.490Z,991.61
2017-08-01T01:53:32.520Z,991.79
2017-08-01T01:54:32.548Z,991.86
2017-08-01T01:55:32.578Z,991.86
2017-08-01T01:56:32.606Z,991.84
2017-08-01T01:57:32.639Z,991.94
2017-08-01T01:58:32.666Z,992.02
2017-08-01T01:59:32.697Z,992.15
2017-08-01T02:00:32.725Z,992.33
2017-08-01T02:01:32.748Z,992.23
2017-08-01T02:02:32.783Z,992.44
2017-08-01T02:03:32.814Z,992.88
2017-08-01T02:04:32.840Z,993.12
2017-08-01T02:05:32.872Z,993.3
2017-08-01T02:06:32.901Z,993.35
2017-08-01T02:07:32.930Z,993.12
2017-08-01T02:08:32.959Z,992.79
2017-08-01T02:09:32.984Z,992.68
2017-08-01T02:10:33.017Z,992.95
2017-08-01T02:11:33.042Z,993.14
2017-08-01T02:12:33.075Z,993.47
2017-08-01T02:13:33.104Z,993.62
2017-08-01T02:14:33.137Z,993.64
2017-08-01T02:15:33.158Z,993.73
2017-08-01T02:16:33.195Z,993.88
2017-08-01T02:17:33.223Z,993.74
2017-08-01T02:18:33.552Z,993.23
2017-08-01T02:19:33.281Z,992.69
2017-08-01T02:20:33.320Z,992.68
2017-08-01T02:21:33.337Z,992.87
2017-08-01T02:22:33.368Z,993.12
2017-08-01T02:23:33.648Z,993.56
2017-08-01T02:24:33.421Z,993.98
2017-08-01T02:25:33.458Z,994.12
2017-08-01T02:26:33.483Z,993.76
2017-08-01T02:27:33.515Z,993.06
2017-08-01T02:28:33.795Z,992.71
2017-08-01T02:29:33.572Z,992.58
2017-08-01T02:30:33.602Z,992.6
2017-08-01T02:31:33.631Z,992.67
2017-08-01T02:32:33.660Z,992.68
2017-08-01T02:33:33.987Z,992.65
2017-08-01T02:34:33.718Z,992.6
2017-08-01T02:35:33.746Z,992.62
2017-08-01T02:36:33.778Z,992.62
2017-08-01T02:37:33.807Z,992.63
2017-08-01T02:38:34.087Z,992.72
2017-08-01T02:39:33.865Z,992.69
2017-08-01T02:40:33.895Z,992.32
2017-08-01T02:41:33.924Z,991.9
2017-08-01T02:42:33.951Z,991.76
2017-08-01T02:43:34.276Z,991.72
2017-08-01T02:44:34.009Z,991.84
2017-08-01T02:45:34.038Z,992.09
2017-08-01T02:46:34.067Z,992.05
2017-08-01T02:47:34.095Z,991.97
2017-08-01T02:48:34.126Z,991.97
2017-08-01T02:49:34.153Z,991.94
2017-08-01T02:50:34.187Z,991.9
2017-08-01T02:51:34.215Z,991.87
2017-08-01T02:52:34.243Z,991.93
2017-08-01T02:53:34.273Z,991.85
2017-08-01T02:54:34.303Z,991.85
2017-08-01T02:55:34.330Z,991.84
2017-08-01T02:56:34.359Z,991.92
2017-08-01T02:57:34.384Z,991.92
2017-08-01T02:58:34.421Z,991.91
2017-08-01T02:59:34.445Z,991.9
2017-08-01T03:00:34.479Z,991.89
2017-08-01T03:01:34.508Z,991.85
2017-08-01T03:02:34.537Z,991.81
2017-08-01T03:03:34.568Z,991.81
2017-08-01T03:04:34.594Z,991.76
2017-08-01T03:05:34.623Z,991.74
2017-08-01T03:06:34.648Z,991.72
2017-08-01T03:07:34.685Z,991.67
2017-08-01T03:08:34.708Z,991.59
2017-08-01T03:09:34.741Z,991.45
2017-08-01T03:10:34.765Z,991.47
2017-08-01T03:11:34.792Z,991.45
2017-08-01T03:12:34.827Z,991.46
2017-08-01T03:13:34.854Z,991.36
2017-08-01T03:14:34.883Z,991.33
2017-08-01T03:15:34.914Z,991.29
2017-08-01T03:16:34.941Z,991.32
2017-08-01T03:17:34.972Z,991.26
2017-08-01T03:18:35.001Z,991.22
2017-08-01T03:19:35.028Z,991.15
2017-08-01T03:20:35.058Z,991.11
2017-08-01T03:21:35.087Z,991.06
2017-08-01T03:22:35.116Z,991.07
2017-08-01T03:23:35.145Z,991.06
2017-08-01T03:24:35.173Z,991.03
2017-08-01T03:25:35.199Z,991.02
2017-08-01T03:26:35.235Z,991.08
2017-08-01T03:27:35.261Z,991.05
2017-08-01T03:28:35.289Z,990.99
2017-08-01T03:29:35.318Z,991
2017-08-01T03:30:35.347Z,991.06
2017-08-01T03:31:35.375Z,991.07
2017-08-01T03:32:35.404Z,991.07
2017-08-01T03:33:35.434Z,991.06
2017-08-01T03:34:35.462Z,991.07
2017-08-01T03:35:35.491Z,991.06
2017-08-01T03:36:35.522Z,990.98
2017-08-01T03:37:35.552Z,990.99
2017-08-01T03:38:35.581Z,991
2017-08-01T03:39:35.610Z,991
2017-08-01T03:40:35.639Z,991.05
2017-08-01T03:41:35.667Z,991.07
2017-08-01T03:42:35.697Z,991.05
2017-08-01T03:43:35.726Z,991.04
2017-08-01T03:44:35.754Z,991
2017-08-01T03:45:35.785Z,990.96
2017-08-01T03:46:35.812Z,990.99
2017-08-01T03:47:35.840Z,990.94
2017-08-01T03:48:35.870Z,990.94
2017-08-01T03:49:35.898Z,990.97
2017-08-01T03:50:35.931Z,990.95
2017-08-01T03:51:35.956Z,990.9
2017-08-01T03:52:35.984Z,990.9
2017-08-01T03:53:36.014Z,990.86
2017-08-01T03:54:36.043Z,990.79
2017-08-01T03:55:36.071Z,990.84
2017-08-01T03:56:36.100Z,990.84
2017-08-01T03:57:36.130Z,990.85
2017-08-01T03:58:36.154Z,990.89
2017-08-01T03:59:36.191Z,990.92
2017-08-01T04:00:36.223Z,990.92
2017-08-01T04:01:36.248Z,990.89
2017-08-01T04:02:36.277Z,990.93
2017-08-01T04:03:36.305Z,990.92
2017-08-01T04:04:36.334Z,990.83
2017-08-01T04:05:36.364Z,990.91
2017-08-01T04:06:36.391Z,990.92
2017-08-01T04:07:36.417Z,990.9
2017-08-01T04:08:36.450Z,990.9
2017-08-01T04:09:36.479Z,990.91
2017-08-01T04:10:36.507Z,990.91
2017-08-01T04:11:36.536Z,990.86
2017-08-01T04:12:36.561Z,990.84
2017-08-01T04:13:36.593Z,990.77
2017-08-01T04:14:36.623Z,990.78
2017-08-01T04:15:36.652Z,990.8
2017-08-01T04:16:36.681Z,990.83
2017-08-01T04:17:36.709Z,990.86
2017-08-01T04:18:36.738Z,990.85
2017-08-01T04:19:36.768Z,990.86
2017-08-01T04:20:36.794Z,990.86
2017-08-01T04:21:36.825Z,990.82
2017-08-01T04:22:36.853Z,990.82
2017-08-01T04:23:36.882Z,990.83
2017-08-01T04:24:36.912Z,990.83
2017-08-01T04:25:36.939Z,990.83
2017-08-01T04:26:36.968Z,990.87
2017-08-01T04:27:37.004Z,990.84
2017-08-01T04:28:37.031Z,990.85
2017-08-01T04:29:37.059Z,990.87
2017-08-01T04:30:37.091Z,990.91
2017-08-01T04:31:37.124Z,990.86
2017-08-01T04:32:37.145Z,990.95
2017-08-01T04:33:37.174Z,990.99
2017-08-01T04:34:37.205Z,991.01
2017-08-01T04:35:37.232Z,991.01
2017-08-01T04:36:37.261Z,990.99
2017-08-01T04:37:37.290Z,990.97
2017-08-01T04:38:37.317Z,990.96
2017-08-01T04:39:37.646Z,991
2017-08-01T04:40:37.372Z,991
2017-08-01T04:41:37.402Z,991.03
2017-08-01T04:42:37.434Z,991.06
2017-08-01T04:43:37.461Z,991.04
2017-08-01T04:44:37.743Z,991.03
2017-08-01T04:45:37.516Z,990.98
2017-08-01T04:46:37.549Z,990.95
2017-08-01T04:47:37.578Z,990.99
2017-08-01T04:48:37.606Z,991.02
2017-08-01T04:49:37.935Z,991.08
2017-08-01T04:50:37.664Z,991.11
2017-08-01T04:51:37.693Z,991.08
2017-08-01T04:52:37.722Z,991.08
2017-08-01T04:53:37.749Z,991.11
2017-08-01T04:54:38.079Z,991.18
2017-08-01T04:55:37.807Z,991.17
2017-08-01T04:56:37.838Z,991.17
2017-08-01T04:57:37.867Z,991.27
2017-08-01T04:58:37.894Z,991.3
2017-08-01T04:59:38.223Z,991.4
2017-08-01T05:00:37.954Z,991.47
2017-08-01T05:01:37.981Z,991.51
2017-08-01T05:02:38.016Z,991.49
2017-08-01T05:03:38.039Z,991.54
2017-08-01T05:04:38.072Z,991.58
2017-08-01T05:05:38.105Z,991.59
2017-08-01T05:06:38.130Z,991.57
2017-08-01T05:07:38.158Z,991.62
2017-08-01T05:08:38.183Z,991.73
2017-08-01T05:09:38.216Z,991.82
2017-08-01T05:10:38.245Z,991.95
2017-08-01T05:11:38.273Z,992.02
2017-08-01T05:12:38.302Z,992.11
2017-08-01T05:13:38.328Z,992.24
2017-08-01T05:14:38.359Z,992.27
2017-08-01T05:15:38.387Z,992.33
2017-08-01T05:16:38.417Z,992.48
2017-08-01T05:17:38.447Z,992.51
2017-08-01T05:18:38.472Z,992.5
2017-08-01T05:19:38.499Z,992.5
2017-08-01T05:20:38.533Z,992.61
2017-08-01T05:21:38.562Z,992.63
2017-08-01T05:22:38.591Z,992.63
2017-08-01T05:23:38.620Z,992.54
2017-08-01T05:24:38.652Z,992.55
2017-08-01T05:25:38.676Z,992.59
2017-08-01T05:26:38.704Z,992.6
2017-08-01T05:27:38.734Z,992.67
2017-08-01T05:28:38.764Z,992.61
2017-08-01T05:29:38.793Z,992.58
2017-08-01T05:30:38.820Z,992.59
2017-08-01T05:31:38.855Z,992.61
2017-08-01T05:32:38.878Z,992.59
2017-08-01T05:33:38.904Z,992.55
2017-08-01T05:34:38.940Z,992.5
2017-08-01T05:35:38.965Z,992.53
2017-08-01T05:36:38.994Z,992.6
2017-08-01T05:37:39.023Z,992.59
2017-08-01T05:38:39.050Z,992.61
2017-08-01T05:39:39.082Z,992.74
2017-08-01T05:40:39.113Z,992.78
2017-08-01T05:41:39.142Z,992.7
2017-08-01T05:42:39.172Z,992.74
2017-08-01T05:43:39.200Z,992.8
2017-08-01T05:44:39.229Z,992.7
2017-08-01T05:45:39.258Z,992.62
2017-08-01T05:46:39.281Z,992.73
2017-08-01T05:47:39.315Z,992.68
2017-08-01T05:48:39.344Z,992.45
2017-08-01T05:49:39.372Z,992.34
2017-08-01T05:50:39.401Z,992.61
2017-08-01T05:51:39.427Z,992.66
2017-08-01T05:52:39.459Z,992.37
2017-08-01T05:53:39.493Z,992.26
2017-08-01T05:54:39.518Z,992.44
2017-08-01T05:55:39.550Z,992.64
2017-08-01T05:56:39.579Z,992.6
2017-08-01T05:57:39.606Z,992.49
2017-08-01T05:58:39.637Z,992.4
2017-08-01T05:59:39.666Z,992.38
2017-08-01T06:00:39.691Z,992.31
2017-08-01T06:01:39.723Z,992.31
2017-08-01T06:02:39.751Z,992.31
2017-08-01T06:03:39.780Z,992.3
2017-08-01T06:04:39.813Z,992.29
2017-08-01T06:05:39.835Z,992.26
2017-08-01T06:06:39.867Z,992.3
2017-08-01T06:07:39.899Z,992.34
2017-08-01T06:08:39.929Z,992.41
2017-08-01T06:09:39.960Z,992.44
2017-08-01T06:10:39.986Z,992.53
2017-08-01T06:11:40.015Z,992.51
2017-08-01T06:12:40.043Z,992.51
2017-08-01T06:13:40.091Z,992.57
2017-08-01T06:14:40.102Z,992.63
2017-08-01T06:15:40.131Z,992.69
2017-08-01T06:16:40.160Z,992.64
2017-08-01T06:17:40.189Z,992.71
2017-08-01T06:18:40.220Z,992.72
2017-08-01T06:19:40.246Z,992.75
2017-08-01T06:20:40.278Z,992.78
2017-08-01T06:21:40.306Z,992.81
2017-08-01T06:22:40.336Z,992.85
2017-08-01T06:23:40.365Z,992.9
2017-08-01T06:24:40.393Z,992.85
2017-08-01T06:25:40.669Z,992.82
2017-08-01T06:26:40.449Z,992.77
2017-08-01T06:27:40.480Z,992.76
2017-08-01T06:28:40.513Z,992.71
2017-08-01T06:29:40.538Z,992.7
2017-08-01T06:30:40.870Z,992.7
2017-08-01T06:31:40.591Z,992.69
2017-08-01T06:32:40.649Z,992.68
2017-08-01T06:33:40.653Z,992.63
2017-08-01T06:34:40.686Z,992.62
2017-08-01T06:35:40.969Z,992.63
2017-08-01T06:36:40.743Z,992.58
2017-08-01T06:37:40.773Z,992.63
2017-08-01T06:38:40.801Z,992.55
2017-08-01T06:39:40.829Z,992.44
2017-08-01T06:40:41.157Z,992.39
2017-08-01T06:41:40.889Z,992.43
2017-08-01T06:42:40.915Z,992.5
2017-08-01T06:43:40.946Z,992.56
2017-08-01T06:44:40.978Z,992.58
2017-08-01T06:45:41.003Z,992.58
2017-08-01T06:46:41.036Z,992.46
2017-08-01T06:47:41.060Z,992.36
2017-08-01T06:48:41.094Z,992.35
2017-08-01T06:49:41.117Z,992.43
2017-08-01T06:50:41.151Z,992.45
2017-08-01T06:51:41.181Z,992.48
2017-08-01T06:52:41.208Z,992.55
2017-08-01T06:53:41.235Z,992.58
2017-08-01T06:54:41.267Z,992.65
2017-08-01T06:55:41.295Z,992.68
2017-08-01T06:56:41.324Z,992.67
2017-08-01T06:57:41.353Z,992.58
2017-08-01T06:58:41.385Z,992.64
2017-08-01T06:59:41.415Z,992.65
2017-08-01T07:00:41.443Z,992.72
2017-08-01T07:01:41.468Z,992.78
2017-08-01T07:02:41.499Z,992.83
2017-08-01T07:03:41.530Z,992.82
2017-08-01T07:04:41.563Z,992.85
2017-08-01T07:05:41.588Z,992.87
2017-08-01T07:06:41.616Z,992.9
2017-08-01T07:07:41.645Z,992.87
2017-08-01T07:08:41.674Z,992.87
2017-08-01T07:09:41.707Z,992.89
2017-08-01T07:10:41.731Z,992.89
2017-08-01T07:11:41.763Z,992.95
2017-08-01T07:12:41.794Z,993.07
2017-08-01T07:13:41.823Z,993.12
2017-08-01T07:14:41.851Z,993.19
2017-08-01T07:15:41.878Z,993.33
2017-08-01T07:16:41.910Z,993.46
2017-08-01T07:17:41.939Z,993.57
2017-08-01T07:18:41.969Z,993.7
2017-08-01T07:19:41.997Z,993.83
2017-08-01T07:20:42.023Z,994.01
2017-08-01T07:21:42.057Z,994.15
2017-08-01T07:22:42.085Z,994.25
2017-08-01T07:23:42.115Z,994.36
2017-08-01T07:24:42.139Z,994.43
2017-08-01T07:25:42.173Z,994.54
2017-08-01T07:26:42.201Z,994.67
2017-08-01T07:27:42.229Z,994.81
2017-08-01T07:28:42.259Z,995.06
2017-08-01T07:29:42.286Z,995.19
2017-08-01T07:30:42.315Z,995.25
2017-08-01T07:31:42.349Z,995.1
2017-08-01T07:32:42.377Z,995.05
2017-08-01T07:33:42.407Z,994.98
2017-08-01T07:34:42.435Z,994.99
2017-08-01T07:35:42.462Z,994.89
2017-08-01T07:36:42.492Z,994.95
2017-08-01T07:37:42.522Z,995.05
2017-08-01T07:38:42.550Z,994.94
2017-08-01T07:39:42.583Z,994.8
2017-08-01T07:40:42.608Z,994.76
2017-08-01T07:41:42.941Z,994.83
2017-08-01T07:42:42.670Z,994.98
2017-08-01T07:43:42.694Z,995.16
2017-08-01T07:44:42.728Z,995.27
2017-08-01T07:45:42.756Z,995.39
2017-08-01T07:46:43.085Z,995.45
2017-08-01T07:47:42.815Z,995.56
2017-08-01T07:48:42.845Z,995.61
2017-08-01T07:49:42.872Z,995.65
2017-08-01T07:50:42.905Z,995.59
2017-08-01T07:51:43.180Z,995.56
2017-08-01T07:52:42.963Z,995.5
2017-08-01T07:53:42.991Z,995.39
2017-08-01T07:54:43.017Z,995.25
2017-08-01T07:55:43.050Z,995.18
2017-08-01T07:56:43.077Z,995.16
2017-08-01T07:57:43.102Z,995.18
2017-08-01T07:58:43.136Z,995.1
2017-08-01T07:59:43.163Z,994.92
2017-08-01T08:00:43.193Z,994.63
2017-08-01T08:01:43.221Z,994.38
2017-08-01T08:02:43.250Z,994.14
2017-08-01T08:03:43.282Z,993.98
2017-08-01T08:04:43.312Z,993.92
2017-08-01T08:05:43.340Z,993.89
2017-08-01T08:06:43.365Z,993.91
2017-08-01T08:07:43.399Z,993.9
2017-08-01T08:08:43.426Z,993.86
2017-08-01T08:09:43.456Z,993.83
2017-08-01T08:10:43.484Z,993.82
2017-08-01T08:11:43.514Z,993.73
2017-08-01T08:12:43.541Z,993.69
2017-08-01T08:13:43.571Z,993.55
2017-08-01T08:14:43.603Z,993.51
2017-08-01T08:15:43.629Z,993.5
2017-08-01T08:16:43.662Z,993.54
2017-08-01T08:17:43.690Z,993.51
2017-08-01T08:18:43.719Z,993.51
2017-08-01T08:19:43.748Z,993.49
2017-08-01T08:20:43.773Z,993.48
2017-08-01T08:21:43.806Z,993.49
2017-08-01T08:22:43.834Z,993.51
2017-08-01T08:23:43.867Z,993.5
2017-08-01T08:24:43.892Z,993.46
2017-08-01T08:25:43.926Z,993.48
2017-08-01T08:26:43.954Z,993.45
2017-08-01T08:27:43.982Z,993.48
2017-08-01T08:28:44.027Z,993.45
2017-08-01T08:29:44.040Z,993.42
2017-08-01T08:30:44.068Z,993.4
2017-08-01T08:31:44.096Z,993.47
2017-08-01T08:32:44.126Z,993.47
2017-08-01T08:33:44.157Z,993.47
2017-08-01T08:34:44.188Z,993.51
2017-08-01T08:35:44.217Z,993.51
2017-08-01T08:36:44.246Z,993.53
2017-08-01T08:37:44.273Z,993.52
2017-08-01T08:38:44.306Z,993.5
2017-08-01T08:39:44.334Z,993.47
2017-08-01T08:40:44.362Z,993.45
2017-08-01T08:41:44.393Z,993.43
2017-08-01T08:42:44.421Z,993.41
2017-08-01T08:43:44.450Z,993.44
2017-08-01T08:44:44.480Z,993.44
2017-08-01T08:45:44.508Z,993.48
2017-08-01T08:46:44.538Z,993.49
2017-08-01T08:47:44.565Z,993.48
2017-08-01T08:48:44.591Z,993.52
2017-08-01T08:49:44.635Z,993.51
2017-08-01T08:50:44.655Z,993.51
2017-08-01T08:51:44.681Z,993.49
2017-08-01T08:52:44.710Z,993.47
2017-08-01T08:53:44.743Z,993.44
2017-08-01T08:54:44.771Z,993.36
2017-08-01T08:55:44.802Z,993.33
2017-08-01T08:56:44.830Z,993.26
2017-08-01T08:57:44.858Z,993.25
2017-08-01T08:58:44.888Z,993.26
2017-08-01T08:59:44.920Z,993.28
2017-08-01T09:00:44.954Z,993.27
2017-08-01T09:01:44.980Z,993.26
2017-08-01T09:02:45.009Z,993.22
2017-08-01T09:03:45.037Z,993.17
2017-08-01T09:04:45.069Z,993.19
2017-08-01T09:05:45.094Z,993.13
2017-08-01T09:06:45.128Z,993.16
2017-08-01T09:07:45.154Z,993.16
2017-08-01T09:08:45.184Z,993.12
2017-08-01T09:09:45.214Z,993.15
2017-08-01T09:10:45.242Z,993.08
2017-08-01T09:11:45.271Z,993.05
2017-08-01T09:12:45.304Z,992.99
2017-08-01T09:13:45.332Z,993.03
2017-08-01T09:14:45.360Z,992.97
2017-08-01T09:15:45.390Z,992.95
2017-08-01T09:16:45.423Z,992.93
2017-08-01T09:17:45.451Z,992.87
2017-08-01T09:18:45.476Z,992.83
2017-08-01T09:19:45.509Z,992.8
2017-08-01T09:20:45.537Z,992.78
2017-08-01T09:21:45.571Z,992.79
2017-08-01T09:22:45.599Z,992.77
2017-08-01T09:23:45.628Z,992.78
2017-08-01T09:24:45.658Z,992.82
2017-08-01T09:25:45.680Z,992.89
2017-08-01T09:26:45.714Z,992.92
2017-08-01T09:27:45.747Z,992.95
2017-08-01T09:28:45.775Z,992.92
2017-08-01T09:29:45.805Z,992.88
2017-08-01T09:30:45.835Z,992.85
2017-08-01T09:31:45.865Z,992.9
2017-08-01T09:32:46.146Z,992.9
2017-08-01T09:33:45.923Z,992.93
2017-08-01T09:34:45.954Z,992.9
2017-08-01T09:35:45.981Z,992.91
2017-08-01T09:36:46.009Z,992.91
2017-08-01T09:37:46.039Z,992.93
2017-08-01T09:38:46.073Z,992.99
2017-08-01T09:39:46.101Z,992.99
2017-08-01T09:40:46.130Z,993.1
2017-08-01T09:41:46.159Z,993.19
2017-08-01T09:42:46.187Z,993.26
2017-08-01T09:43:46.220Z,993.35
2017-08-01T09:44:46.249Z,993.35
2017-08-01T09:45:46.277Z,993.39
2017-08-01T09:46:46.306Z,993.48
2017-08-01T09:47:46.335Z,993.5
2017-08-01T09:48:46.360Z,993.51
2017-08-01T09:49:46.397Z,993.54
2017-08-01T09:50:46.427Z,993.58
2017-08-01T09:51:46.473Z,993.61
2017-08-01T09:52:46.484Z,993.67
2017-08-01T09:53:46.514Z,993.7
2017-08-01T09:54:46.545Z,993.73
2017-08-01T09:55:46.575Z,993.75
2017-08-01T09:56:46.603Z,993.72
2017-08-01T09:57:46.630Z,993.71
2017-08-01T09:58:46.661Z,993.63
2017-08-01T09:59:46.689Z,993.71
2017-08-01T10:00:46.728Z,993.83
2017-08-01T10:01:46.750Z,993.97
2017-08-01T10:02:46.781Z,994.13
2017-08-01T10:03:46.810Z,994.16
2017-08-01T10:04:46.842Z,994.09
2017-08-01T10:05:46.870Z,994.01
2017-08-01T10:06:46.898Z,994.01
2017-08-01T10:07:46.928Z,993.96
2017-08-01T10:08:46.960Z,993.91
2017-08-01T10:09:46.989Z,993.92
2017-08-01T10:10:47.017Z,993.99
2017-08-01T10:11:47.047Z,994.14
2017-08-01T10:12:47.076Z,994.33
2017-08-01T10:13:47.109Z,994.41
2017-08-01T10:14:47.138Z,994.43
2017-08-01T10:15:47.167Z,994.43
2017-08-01T10:16:47.194Z,994.43
2017-08-01T10:17:47.224Z,994.39
2017-08-01T10:18:47.256Z,994.41
2017-08-01T10:19:47.285Z,994.47
2017-08-01T10:20:47.313Z,994.5
2017-08-01T10:21:47.347Z,994.48
2017-08-01T10:22:47.367Z,994.44
2017-08-01T10:23:47.406Z,994.45
2017-08-01T10:24:47.440Z,994.5
2017-08-01T10:25:47.464Z,994.53
2017-08-01T10:26:47.492Z,994.57
2017-08-01T10:27:47.524Z,994.55
2017-08-01T10:28:47.553Z,994.47
2017-08-01T10:29:47.578Z,994.5
2017-08-01T10:30:47.611Z,994.5
2017-08-01T10:31:47.642Z,994.57
2017-08-01T10:32:47.678Z,994.57
2017-08-01T10:33:47.700Z,994.55
2017-08-01T10:34:47.731Z,994.57
2017-08-01T10:35:47.763Z,994.52
2017-08-01T10:36:47.793Z,994.47
2017-08-01T10:37:47.821Z,994.51
2017-08-01T10:38:47.845Z,994.53
2017-08-01T10:39:47.878Z,994.48
2017-08-01T10:40:47.911Z,994.46
2017-08-01T10:41:47.947Z,994.41
2017-08-01T10:42:47.968Z,994.44
2017-08-01T10:43:48.001Z,994.41
2017-08-01T10:44:48.029Z,994.37
2017-08-01T10:45:48.063Z,994.33
2017-08-01T10:46:48.091Z,994.38
2017-08-01T10:47:48.111Z,994.39
2017-08-01T10:48:48.148Z,994.37
2017-08-01T10:49:48.177Z,994.37
2017-08-01T10:50:48.205Z,994.44
2017-08-01T10:51:48.236Z,994.52
2017-08-01T10:52:48.269Z,994.54
2017-08-01T10:53:48.554Z,994.63
2017-08-01T10:54:48.326Z,994.75
2017-08-01T10:55:48.356Z,994.94
2017-08-01T10:56:48.388Z,994.98
2017-08-01T10:57:48.417Z,994.92
2017-08-01T10:58:48.697Z,994.94
2017-08-01T10:59:48.475Z,994.97
2017-08-01T11:00:48.507Z,995.04
2017-08-01T11:01:48.539Z,995.08
2017-08-01T11:02:48.565Z,995.13
2017-08-01T11:03:48.844Z,995.14
2017-08-01T11:04:48.625Z,995.12
2017-08-01T11:05:48.656Z,995.18
2017-08-01T11:06:48.685Z,995.19
2017-08-01T11:07:48.712Z,995.19
2017-08-01T11:08:49.041Z,995.2
2017-08-01T11:09:48.775Z,995.17
2017-08-01T11:10:48.802Z,995.14
2017-08-01T11:11:48.833Z,995.03
2017-08-01T11:12:48.862Z,994.94
2017-08-01T11:13:49.195Z,994.87
2017-08-01T11:14:48.923Z,994.76
2017-08-01T11:15:48.952Z,994.63
2017-08-01T11:16:48.982Z,994.53
2017-08-01T11:17:49.014Z,994.47
2017-08-01T11:18:49.041Z,994.4
2017-08-01T11:19:49.073Z,994.31
2017-08-01T11:20:49.103Z,994.25
2017-08-01T11:21:49.134Z,994.2
2017-08-01T11:22:49.160Z,994.19
2017-08-01T11:23:49.192Z,994.17
2017-08-01T11:24:49.221Z,994.15
2017-08-01T11:25:49.252Z,994.15
2017-08-01T11:26:49.280Z,994.13
2017-08-01T11:27:49.310Z,994.08
2017-08-01T11:28:49.342Z,994
2017-08-01T11:29:49.371Z,993.94
2017-08-01T11:30:49.396Z,993.88
2017-08-01T11:31:49.427Z,993.84
2017-08-01T11:32:49.461Z,993.8
2017-08-01T11:33:49.490Z,993.76
2017-08-01T11:34:49.519Z,993.68
2017-08-01T11:35:49.553Z,993.65
2017-08-01T11:36:49.576Z,993.63
2017-08-01T11:37:49.605Z,993.59
2017-08-01T11:38:49.639Z,993.55
2017-08-01T11:39:49.671Z,993.54
2017-08-01T11:40:49.699Z,993.56
2017-08-01T11:41:49.729Z,993.62
2017-08-01T11:42:49.763Z,993.61
2017-08-01T11:43:49.791Z,993.64
2017-08-01T11:44:49.821Z,993.63
2017-08-01T11:45:49.851Z,993.67
2017-08-01T11:46:49.880Z,993.69
2017-08-01T11:47:49.909Z,993.79
2017-08-01T11:48:49.944Z,993.82
2017-08-01T11:49:49.971Z,993.85
2017-08-01T11:50:50.001Z,993.93
2017-08-01T11:51:50.028Z,994.01
2017-08-01T11:52:50.061Z,994.04
2017-08-01T11:53:50.091Z,994.04
2017-08-01T11:54:50.120Z,994.01
2017-08-01T11:55:50.153Z,994
2017-08-01T11:56:50.182Z,993.94
2017-08-01T11:57:50.211Z,993.96
2017-08-01T11:58:50.238Z,994.05
2017-08-01T11:59:50.267Z,994.12
2017-08-01T12:00:50.300Z,994.19
2017-08-01T12:01:50.331Z,994.29
2017-08-01T12:02:50.361Z,994.26
2017-08-01T12:03:50.389Z,994.18
2017-08-01T12:04:50.416Z,994.08
2017-08-01T12:05:50.447Z,993.99
2017-08-01T12:06:50.481Z,993.96
2017-08-01T12:07:50.510Z,993.89
2017-08-01T12:08:50.542Z,993.91
2017-08-01T12:09:50.818Z,993.93
2017-08-01T12:10:50.601Z,993.96
2017-08-01T12:11:50.628Z,994.02
2017-08-01T12:12:50.660Z,994.06
2017-08-01T12:13:50.692Z,994.06
2017-08-01T12:14:50.971Z,994.14
2017-08-01T12:15:50.748Z,994.13
2017-08-01T12:16:50.778Z,994.21
2017-08-01T12:17:50.805Z,994.26
2017-08-01T12:18:50.838Z,994.39
2017-08-01T12:19:51.168Z,994.55
2017-08-01T12:20:50.896Z,994.64
2017-08-01T12:21:50.930Z,994.77
2017-08-01T12:22:50.954Z,994.82
2017-08-01T12:23:50.988Z,994.88
2017-08-01T12:24:51.021Z,994.92
2017-08-01T12:25:51.048Z,994.92
2017-08-01T12:26:51.076Z,994.84
2017-08-01T12:27:51.106Z,994.83
2017-08-01T12:28:51.141Z,994.82
2017-08-01T12:29:51.165Z,994.81
2017-08-01T12:30:51.197Z,994.74
2017-08-01T12:31:51.222Z,994.65